الصفحة الرئيسية
METAR-TAF:

METAR-TAF

مطار :

دمشق, سوريا

مطار دمشق الدولي

دائرة عرض: 33-25N, خط طول: 036-31E, ارتفاع: 608 متر

مراقبة الطقس الحالي

تاريخ ووقت الإصدار 52 دقيقة قبل الساعة 21:00UTC
ريح 10 عقدة من الجنوب
درجة الحرارة 8°درجة مئوية
الرطوبة 76%
ضغط 1013 hPa
الرؤية 10 كم أو أكثر
الغيوم لا تقل 1500 م ولا وجود لمزنة ركامية السحاب الأسود

METAR: OSDI 182100Z 18010KT CAVOK 08/04 Q1013

زمن: 23:52 (21:52 UTC)

توقعات

تاريخ ووقت الإصدار 4ساعات و 52 دقيقة قبل الساعة 17:00UTC
التوقعات صالحة من18 الساعة 18 UTC إلى 19 الساعة 24 UTC
ريح 3 عقدةمن اتجاهات متغيرة
الرؤية: 8000 متر
أصبح
من 19 الساعة 00 UTC إلى 19 الساعة 02 UTC
مؤقت
من 19 الساعة 02 UTC إلى 19 الساعة 06 UTC
غيوم متفرقة على ارتفاع 700 قدم
أصبح
من 19 الساعة 08 UTC إلى 19 الساعة 10 UTC
ريح 10 عقدة من الجنوب الغربي
الرؤية 10 كم أو أكثر
غيوم قليلة على ارتفاع 3000 قدم

TAF: OSDI 181700Z 1818/1924 VRB03KT 8000 BECMG 1900/1902 3000BR TEMPO 1902/1906 0200FG SCT007 BECMG 1908/1910 22010KT 9999 FEW030

أرصاد الطقس والتوقعات من أكثر من 4000 مطار (تقارير الطقس للمطار METAR والتنبؤ بالطقس بالمطارTAF).

المحطات المتاحة هي النقط الصفراء والحمراء على الخريطة.

حرك المؤشر فوق النقطة لمعرفة اسم المحطة.

ثم انقر لمعرفة أرصاد وتوقعات الطقس.

لتغيير الخارطة: اضغط على الأزرار الخضراء مع رمز الصليب الأسود للتكبير. على الزر الأخضر مع شرطة للتصغير، أو على الأسهم الخضراء للخرائط المجاورة.


METAR-TAF: